createdAt,value
2018-03-20T00:01:06.720Z,-2.60
2018-03-20T00:03:34.276Z,-2.60
2018-03-20T00:06:01.822Z,-2.60
2018-03-20T00:08:29.398Z,-2.50
2018-03-20T00:10:56.959Z,-2.50
2018-03-20T00:13:24.580Z,-2.50
2018-03-20T00:15:52.159Z,-2.50
2018-03-20T00:18:19.721Z,-2.50
2018-03-20T00:20:47.271Z,-2.60
2018-03-20T00:23:14.845Z,-2.60
2018-03-20T00:25:42.655Z,-2.60
2018-03-20T00:28:11.035Z,-2.60
2018-03-20T00:30:38.732Z,-2.60
2018-03-20T00:33:07.090Z,-2.50
2018-03-20T00:35:34.634Z,-2.50
2018-03-20T00:38:02.192Z,-2.60
2018-03-20T00:40:30.506Z,-2.60
2018-03-20T00:42:58.080Z,-2.60
2018-03-20T00:45:25.641Z,-2.60
2018-03-20T00:47:53.398Z,-2.70
2018-03-20T00:50:21.004Z,-2.80
2018-03-20T00:52:48.616Z,-2.80
2018-03-20T00:55:16.361Z,-2.80
2018-03-20T00:57:43.960Z,-2.90
2018-03-20T01:00:12.284Z,-2.90
2018-03-20T01:02:42.024Z,-2.90
2018-03-20T01:05:09.626Z,-3.00
2018-03-20T01:07:37.165Z,-3.00
2018-03-20T01:10:04.802Z,-3.00
2018-03-20T01:12:32.372Z,-3.00
2018-03-20T01:14:59.942Z,-3.00
2018-03-20T01:17:27.486Z,-3.00
2018-03-20T01:19:55.052Z,-3.00
2018-03-20T01:22:22.658Z,-3.10
2018-03-20T01:24:50.249Z,-3.10
2018-03-20T01:27:17.768Z,-3.10
2018-03-20T01:29:45.351Z,-3.10
2018-03-20T01:32:13.676Z,-3.00
2018-03-20T01:34:41.366Z,-3.00
2018-03-20T01:37:08.909Z,-3.00
2018-03-20T01:39:36.492Z,-3.10
2018-03-20T01:42:04.036Z,-3.10
2018-03-20T01:44:32.406Z,-3.10
2018-03-20T01:47:00.201Z,-3.10
2018-03-20T01:49:28.617Z,-3.10
2018-03-20T01:51:56.242Z,-3.20
2018-03-20T01:54:23.946Z,-3.20
2018-03-20T01:56:51.518Z,-3.10
2018-03-20T01:59:19.162Z,-3.10
2018-03-20T02:01:46.708Z,-3.20
2018-03-20T02:04:14.278Z,-3.20
2018-03-20T02:06:41.828Z,-3.20
2018-03-20T02:09:09.537Z,-3.20
2018-03-20T02:11:37.085Z,-3.20
2018-03-20T02:14:04.650Z,-3.30
2018-03-20T02:16:32.192Z,-3.30
2018-03-20T02:18:59.960Z,-3.30
2018-03-20T02:21:27.500Z,-3.40
2018-03-20T02:23:55.094Z,-3.40
2018-03-20T02:26:22.735Z,-3.50
2018-03-20T02:28:50.305Z,-3.40
2018-03-20T02:31:17.857Z,-3.40
2018-03-20T02:33:45.450Z,-3.40
2018-03-20T02:36:13.057Z,-3.40
2018-03-20T02:38:40.609Z,-3.40
2018-03-20T02:41:08.146Z,-3.40
2018-03-20T02:43:36.641Z,-3.30
2018-03-20T02:46:04.190Z,-3.30
2018-03-20T02:48:32.524Z,-3.30
2018-03-20T02:51:00.069Z,-3.30
2018-03-20T02:53:27.865Z,-3.30
2018-03-20T02:55:55.580Z,-3.30
2018-03-20T02:58:23.151Z,-3.30
2018-03-20T03:00:50.709Z,-3.30
2018-03-20T03:03:18.275Z,-3.40
2018-03-20T03:05:45.822Z,-3.40
2018-03-20T03:08:13.415Z,-3.50
2018-03-20T03:10:41.072Z,-3.50
2018-03-20T03:13:08.678Z,-3.50
2018-03-20T03:15:36.224Z,-3.60
2018-03-20T03:18:04.550Z,-3.70
2018-03-20T03:20:32.100Z,-3.70
2018-03-20T03:22:59.673Z,-3.70
2018-03-20T03:25:27.229Z,-3.70
2018-03-20T03:27:54.921Z,-3.70
2018-03-20T03:30:22.511Z,-3.70
2018-03-20T03:32:50.073Z,-3.70
2018-03-20T03:35:18.402Z,-3.70
2018-03-20T03:37:45.958Z,-3.70
2018-03-20T03:40:13.578Z,-3.70
2018-03-20T03:42:41.258Z,-3.70
2018-03-20T03:45:08.795Z,-3.80
2018-03-20T03:47:37.123Z,-3.80
2018-03-20T03:50:04.781Z,-3.90
2018-03-20T03:52:32.338Z,-3.90
2018-03-20T03:54:59.885Z,-3.90
2018-03-20T03:57:27.524Z,-3.90
2018-03-20T03:59:55.127Z,-4.00
2018-03-20T04:02:22.705Z,-3.90
2018-03-20T04:04:51.057Z,-4.00
2018-03-20T04:07:18.595Z,-3.90
2018-03-20T04:09:46.162Z,-3.90
2018-03-20T04:12:13.707Z,-3.90
2018-03-20T04:14:41.285Z,-3.90
2018-03-20T04:17:08.857Z,-3.90
2018-03-20T04:19:36.457Z,-3.90
2018-03-20T04:22:04.786Z,-3.90
2018-03-20T04:24:32.327Z,-3.90
2018-03-20T04:26:59.918Z,-3.90
2018-03-20T04:29:27.453Z,-3.80
2018-03-20T04:31:55.177Z,-3.80
2018-03-20T04:34:23.530Z,-3.80
2018-03-20T04:36:54.322Z,-3.70
2018-03-20T04:39:21.867Z,-3.80
2018-03-20T04:41:49.410Z,-3.70
2018-03-20T04:44:16.960Z,-3.60
2018-03-20T04:46:45.274Z,-3.60
2018-03-20T04:49:12.853Z,-3.60
2018-03-20T04:51:40.407Z,-3.60
2018-03-20T04:54:07.982Z,-3.50
2018-03-20T04:56:35.552Z,-3.50
2018-03-20T04:59:03.142Z,-3.50
2018-03-20T05:01:30.751Z,-3.40
2018-03-20T05:03:58.394Z,-3.40
2018-03-20T05:06:25.949Z,-3.40
2018-03-20T05:08:53.513Z,-3.40
2018-03-20T05:11:21.067Z,-3.40
2018-03-20T05:13:48.634Z,-3.40
2018-03-20T05:16:16.177Z,-3.40
2018-03-20T05:18:44.388Z,-3.30
2018-03-20T05:21:13.360Z,-3.30
2018-03-20T05:23:47.534Z,-3.30
2018-03-20T05:26:15.847Z,-3.30
2018-03-20T05:28:43.476Z,-3.30
2018-03-20T05:31:11.797Z,-3.10
2018-03-20T05:33:39.432Z,-3.20
2018-03-20T05:36:06.982Z,-3.10
2018-03-20T05:38:34.528Z,-3.00
2018-03-20T05:41:02.867Z,-2.80
2018-03-20T05:43:30.411Z,-2.90
2018-03-20T05:45:58.018Z,-2.80
2018-03-20T05:48:31.137Z,-2.70
2018-03-20T05:51:04.197Z,-2.60
2018-03-20T05:53:31.758Z,-2.60
2018-03-20T05:55:59.590Z,-2.50
2018-03-20T05:58:27.134Z,-2.50
2018-03-20T06:00:54.690Z,-2.40
2018-03-20T06:03:22.217Z,-2.30
2018-03-20T06:05:50.279Z,-2.20
2018-03-20T06:08:18.612Z,-2.10
2018-03-20T06:10:46.281Z,-2.10
2018-03-20T06:13:13.858Z,-2.00
2018-03-20T06:15:41.416Z,-1.90
2018-03-20T06:18:08.982Z,-1.80
2018-03-20T06:20:36.532Z,-1.80
2018-03-20T06:23:05.686Z,-1.60
2018-03-20T06:25:33.437Z,-1.60
2018-03-20T06:28:00.993Z,-1.50
2018-03-20T06:30:28.557Z,-1.40
2018-03-20T06:32:56.109Z,-1.30
2018-03-20T06:35:23.662Z,-1.30
2018-03-20T06:37:51.282Z,-1.20
2018-03-20T06:40:18.839Z,-1.10
2018-03-20T06:42:46.418Z,-1.10
2018-03-20T06:45:14.851Z,-0.90
2018-03-20T06:47:42.423Z,-0.90
2018-03-20T06:50:10.170Z,-0.80
2018-03-20T06:52:37.729Z,-0.80
2018-03-20T06:55:05.270Z,-0.70
2018-03-20T06:57:33.146Z,-0.60
2018-03-20T07:00:00.697Z,-0.50
2018-03-20T07:02:28.279Z,-0.50
2018-03-20T07:04:55.867Z,-0.50
2018-03-20T07:07:23.411Z,-0.40
2018-03-20T07:09:51.214Z,-0.30
2018-03-20T07:12:18.758Z,-0.30
2018-03-20T07:14:46.348Z,-0.30
2018-03-20T07:17:13.892Z,-0.10
2018-03-20T07:19:42.235Z,0.10
2018-03-20T07:22:09.777Z,0.10
2018-03-20T07:24:37.333Z,0.20
2018-03-20T07:27:04.871Z,0.20
2018-03-20T07:29:32.645Z,0.30
2018-03-20T07:32:00.181Z,0.40
2018-03-20T07:34:27.783Z,0.50
2018-03-20T07:36:55.309Z,0.60
2018-03-20T07:39:22.861Z,0.80
2018-03-20T07:41:51.184Z,0.90
2018-03-20T07:44:18.733Z,0.90
2018-03-20T07:46:46.266Z,0.90
2018-03-20T07:49:13.821Z,0.90
2018-03-20T07:51:41.402Z,0.90
2018-03-20T07:54:08.979Z,1.10
2018-03-20T07:56:36.534Z,1.30
2018-03-20T07:59:04.082Z,1.50
2018-03-20T08:01:31.649Z,1.70
2018-03-20T08:03:59.192Z,1.80
2018-03-20T08:06:26.781Z,1.90
2018-03-20T08:08:54.317Z,2.10
2018-03-20T08:11:21.889Z,2.30
2018-03-20T08:13:50.989Z,2.30
2018-03-20T08:16:18.635Z,2.30
2018-03-20T08:18:46.472Z,2.20
2018-03-20T08:21:14.856Z,2.00
2018-03-20T08:23:42.397Z,2.00
2018-03-20T08:26:10.725Z,2.00
2018-03-20T08:28:38.353Z,2.00
2018-03-20T08:31:05.994Z,1.90
2018-03-20T08:33:35.435Z,2.00
2018-03-20T08:36:02.977Z,2.00
2018-03-20T08:38:32.092Z,2.30
2018-03-20T08:40:59.631Z,2.30
2018-03-20T08:43:27.204Z,2.50
2018-03-20T08:45:54.776Z,2.60
2018-03-20T08:48:22.331Z,2.60
2018-03-20T08:50:49.935Z,2.70
2018-03-20T08:53:17.497Z,2.90
2018-03-20T08:55:45.111Z,3.10
2018-03-20T08:58:12.973Z,3.40
2018-03-20T09:00:40.540Z,3.60
2018-03-20T09:03:08.452Z,3.90
2018-03-20T09:05:36.033Z,4.00
2018-03-20T09:08:04.252Z,4.30
2018-03-20T09:10:31.969Z,4.50
2018-03-20T09:12:59.684Z,4.50
2018-03-20T09:15:27.234Z,4.60
2018-03-20T09:17:55.021Z,4.60
2018-03-20T09:20:23.205Z,4.50
2018-03-20T09:22:50.793Z,4.40
2018-03-20T09:25:19.110Z,4.50
2018-03-20T09:27:46.695Z,4.40
2018-03-20T09:30:14.256Z,4.60
2018-03-20T09:32:43.621Z,4.60
2018-03-20T09:35:11.156Z,4.60
2018-03-20T09:37:39.516Z,4.50
2018-03-20T09:40:07.079Z,4.50
2018-03-20T09:42:35.711Z,4.20
2018-03-20T09:45:03.406Z,4.10
2018-03-20T09:47:30.969Z,4.00
2018-03-20T09:49:59.287Z,3.90
2018-03-20T09:52:26.888Z,3.90
2018-03-20T09:54:55.446Z,3.80
2018-03-20T09:57:23.259Z,3.70
2018-03-20T09:59:50.870Z,3.80
2018-03-20T10:02:18.464Z,3.80
2018-03-20T10:04:46.941Z,3.80
2018-03-20T10:07:14.469Z,3.80
2018-03-20T10:09:42.023Z,3.90
2018-03-20T10:12:09.830Z,3.90
2018-03-20T10:14:38.197Z,3.90
2018-03-20T10:17:05.733Z,3.90
2018-03-20T10:19:33.324Z,4.00
2018-03-20T10:22:00.888Z,3.90
2018-03-20T10:24:28.446Z,3.90
2018-03-20T10:26:56.704Z,3.90
2018-03-20T10:29:24.448Z,3.80
2018-03-20T10:31:51.977Z,3.80
2018-03-20T10:34:19.785Z,3.80
2018-03-20T10:36:47.323Z,3.90
2018-03-20T10:39:15.098Z,3.90
2018-03-20T10:41:42.639Z,3.90
2018-03-20T10:44:10.222Z,4.00
2018-03-20T10:46:37.808Z,4.10
2018-03-20T10:49:06.279Z,4.20
2018-03-20T10:51:34.740Z,4.30
2018-03-20T10:54:02.307Z,4.40
2018-03-20T10:56:29.861Z,4.40
2018-03-20T10:58:57.389Z,4.50
2018-03-20T11:01:32.582Z,4.50
2018-03-20T11:04:00.074Z,4.50
2018-03-20T11:06:28.821Z,4.60
2018-03-20T11:08:56.344Z,4.60
2018-03-20T11:11:25.230Z,4.60
2018-03-20T11:13:52.827Z,4.50
2018-03-20T11:16:20.396Z,4.40
2018-03-20T11:18:48.021Z,4.40
2018-03-20T11:21:15.603Z,4.50
2018-03-20T11:23:43.145Z,4.50
2018-03-20T11:26:10.701Z,4.40
2018-03-20T11:28:38.467Z,4.50
2018-03-20T11:31:06.061Z,4.50
2018-03-20T11:33:33.605Z,4.60
2018-03-20T11:36:01.174Z,4.70
2018-03-20T11:38:28.723Z,4.90
2018-03-20T11:40:56.286Z,4.90
2018-03-20T11:43:23.824Z,5.00
2018-03-20T11:45:51.401Z,4.90
2018-03-20T11:48:18.948Z,4.90
2018-03-20T11:50:46.510Z,4.80
2018-03-20T11:53:14.042Z,4.80
2018-03-20T11:55:41.604Z,4.70
2018-03-20T11:58:09.248Z,4.60
2018-03-20T12:00:37.589Z,4.40
2018-03-20T12:03:05.177Z,4.50
2018-03-20T12:05:33.531Z,4.30
2018-03-20T12:08:13.020Z,4.30
2018-03-20T12:10:40.621Z,4.30
2018-03-20T12:13:08.164Z,4.30
2018-03-20T12:15:35.712Z,4.30
2018-03-20T12:18:03.261Z,4.30
2018-03-20T12:20:30.789Z,4.20
2018-03-20T12:22:58.488Z,4.20
2018-03-20T12:25:26.040Z,4.20
2018-03-20T12:27:53.600Z,4.20
2018-03-20T12:30:21.165Z,4.20
2018-03-20T12:32:48.732Z,4.20
2018-03-20T12:35:16.298Z,4.30
2018-03-20T12:37:43.897Z,4.20
2018-03-20T12:40:12.613Z,4.10
2018-03-20T12:42:40.964Z,4.20
2018-03-20T12:45:08.522Z,4.20
2018-03-20T12:47:36.212Z,4.30
2018-03-20T12:50:04.519Z,4.30
2018-03-20T12:52:32.093Z,4.30
2018-03-20T12:55:00.447Z,4.40
2018-03-20T12:57:28.217Z,4.40
2018-03-20T12:59:55.980Z,4.40
2018-03-20T13:02:23.562Z,4.40
2018-03-20T13:04:51.111Z,4.40
2018-03-20T13:07:18.663Z,4.40
2018-03-20T13:09:46.205Z,4.40
2018-03-20T13:12:13.756Z,4.40
2018-03-20T13:14:41.293Z,4.30
2018-03-20T13:17:09.630Z,4.40
2018-03-20T13:19:37.170Z,4.30
2018-03-20T13:22:04.904Z,4.50
2018-03-20T13:24:33.206Z,4.80
2018-03-20T13:27:00.853Z,4.80
2018-03-20T13:29:28.430Z,4.90
2018-03-20T13:31:56.102Z,5.10
2018-03-20T13:34:23.660Z,5.10
2018-03-20T13:36:51.239Z,5.10
2018-03-20T13:39:18.783Z,5.00
2018-03-20T13:41:46.351Z,5.00
2018-03-20T13:44:13.900Z,4.90
2018-03-20T13:46:41.504Z,4.80
2018-03-20T13:49:09.098Z,4.70
2018-03-20T13:51:36.608Z,4.50
2018-03-20T13:54:04.137Z,4.30
2018-03-20T13:56:31.686Z,4.10
2018-03-20T13:58:59.231Z,3.90
2018-03-20T14:01:26.783Z,3.80
2018-03-20T14:03:54.535Z,3.80
2018-03-20T14:06:22.974Z,3.70
2018-03-20T14:08:50.555Z,3.60
2018-03-20T14:11:19.052Z,3.50
2018-03-20T14:13:46.587Z,3.40
2018-03-20T14:16:14.156Z,3.40
2018-03-20T14:18:41.715Z,3.40
2018-03-20T14:21:09.279Z,3.30
2018-03-20T14:23:36.830Z,3.40
2018-03-20T14:26:04.399Z,3.40
2018-03-20T14:28:32.705Z,3.40
2018-03-20T14:31:00.258Z,3.40
2018-03-20T14:33:28.559Z,3.30
2018-03-20T14:35:56.331Z,3.30
2018-03-20T14:38:23.873Z,3.30
2018-03-20T14:40:51.479Z,3.20
2018-03-20T14:43:19.060Z,3.20
2018-03-20T14:45:46.597Z,3.10
2018-03-20T14:48:14.190Z,3.10
2018-03-20T14:50:41.745Z,3.10
2018-03-20T14:53:10.082Z,2.90
2018-03-20T14:55:38.517Z,2.90
2018-03-20T14:58:06.846Z,2.80
2018-03-20T15:00:34.385Z,2.80
2018-03-20T15:03:01.961Z,2.80
2018-03-20T15:05:29.517Z,2.80
2018-03-20T15:07:57.226Z,2.80
2018-03-20T15:10:25.542Z,2.70
2018-03-20T15:12:53.234Z,2.70
2018-03-20T15:15:20.790Z,2.70
2018-03-20T15:17:48.357Z,2.70
2018-03-20T15:20:16.133Z,2.70
2018-03-20T15:22:43.706Z,2.70
2018-03-20T15:25:11.466Z,2.70
2018-03-20T15:27:39.784Z,2.70
2018-03-20T15:30:07.463Z,2.60
2018-03-20T15:32:35.026Z,2.70
2018-03-20T15:35:02.620Z,2.70
2018-03-20T15:37:30.178Z,2.70
2018-03-20T15:39:58.566Z,2.70
2018-03-20T15:42:26.117Z,2.70
2018-03-20T15:44:53.721Z,2.70
2018-03-20T15:47:21.297Z,2.70
2018-03-20T15:49:48.883Z,2.60
2018-03-20T15:52:16.435Z,2.60
2018-03-20T15:54:44.249Z,2.60
2018-03-20T15:57:11.866Z,2.50
2018-03-20T15:59:39.424Z,2.50
2018-03-20T16:02:06.953Z,2.50
2018-03-20T16:04:34.545Z,2.50
2018-03-20T16:07:02.135Z,2.40
2018-03-20T16:09:30.458Z,2.40
2018-03-20T16:11:58.018Z,2.40
2018-03-20T16:14:25.606Z,2.40
2018-03-20T16:16:54.187Z,2.30
2018-03-20T16:19:21.751Z,2.30
2018-03-20T16:21:49.693Z,2.30
2018-03-20T16:24:17.289Z,2.30
2018-03-20T16:26:44.854Z,2.40
2018-03-20T16:29:13.182Z,2.40
2018-03-20T16:31:40.776Z,2.30
2018-03-20T16:34:08.318Z,2.30
2018-03-20T16:36:36.157Z,2.30
2018-03-20T16:39:03.696Z,2.30
2018-03-20T16:41:31.299Z,2.30
2018-03-20T16:43:58.881Z,2.30
2018-03-20T16:46:26.458Z,2.30
2018-03-20T16:48:54.005Z,2.30
2018-03-20T16:51:21.613Z,2.30
2018-03-20T16:53:49.163Z,2.20
2018-03-20T16:56:16.934Z,2.20
2018-03-20T16:58:44.517Z,2.20
2018-03-20T17:01:12.337Z,2.10
2018-03-20T17:03:40.944Z,2.10
2018-03-20T17:06:08.549Z,2.10
2018-03-20T17:08:36.097Z,2.10
2018-03-20T17:11:03.693Z,2.10
2018-03-20T17:13:31.284Z,2.10
2018-03-20T17:15:58.860Z,2.00
2018-03-20T17:18:26.393Z,2.00
2018-03-20T17:20:53.965Z,2.00
2018-03-20T17:23:21.557Z,2.00
2018-03-20T17:25:49.205Z,2.00
2018-03-20T17:28:16.758Z,2.00
2018-03-20T17:30:44.486Z,2.00
2018-03-20T17:33:12.032Z,2.00
2018-03-20T17:35:39.592Z,2.00
2018-03-20T17:38:07.906Z,2.00
2018-03-20T17:40:35.515Z,2.00
2018-03-20T17:43:03.185Z,2.00
2018-03-20T17:45:31.508Z,2.00
2018-03-20T17:47:59.092Z,2.00
2018-03-20T17:50:26.642Z,2.00
2018-03-20T17:52:54.208Z,2.00
2018-03-20T17:55:21.946Z,2.00
2018-03-20T17:57:49.512Z,2.00
2018-03-20T18:00:17.167Z,2.00
2018-03-20T18:02:44.731Z,2.00
2018-03-20T18:05:12.510Z,2.00
2018-03-20T18:07:40.073Z,2.00
2018-03-20T18:10:07.676Z,2.00
2018-03-20T18:12:36.016Z,2.00
2018-03-20T18:15:03.586Z,2.00
2018-03-20T18:17:31.146Z,2.00
2018-03-20T18:19:58.694Z,2.00
2018-03-20T18:22:26.393Z,2.00
2018-03-20T18:24:54.742Z,2.00
2018-03-20T18:27:22.307Z,2.00
2018-03-20T18:29:49.984Z,2.00
2018-03-20T18:32:18.314Z,2.00
2018-03-20T18:34:45.870Z,2.00
2018-03-20T18:37:13.414Z,2.00
2018-03-20T18:39:41.031Z,2.00
2018-03-20T18:42:08.571Z,2.00
2018-03-20T18:44:36.174Z,1.90
2018-03-20T18:47:04.490Z,1.90
2018-03-20T18:49:32.462Z,1.90
2018-03-20T18:52:00.017Z,2.00
2018-03-20T18:54:27.575Z,1.90
2018-03-20T18:56:55.164Z,1.90
2018-03-20T18:59:22.738Z,1.90
2018-03-20T19:01:50.369Z,1.90
2018-03-20T19:04:18.077Z,1.90
2018-03-20T19:06:46.423Z,2.00
2018-03-20T19:09:14.116Z,1.90
2018-03-20T19:11:41.698Z,1.90
2018-03-20T19:14:09.250Z,1.90
2018-03-20T19:16:37.138Z,2.00
2018-03-20T19:19:04.733Z,1.90
2018-03-20T19:21:32.439Z,1.90
2018-03-20T19:23:59.977Z,1.90
2018-03-20T19:26:28.321Z,1.90
2018-03-20T19:28:55.888Z,1.90
2018-03-20T19:31:23.500Z,1.90
2018-03-20T19:33:51.065Z,1.90
2018-03-20T19:36:18.715Z,1.90
2018-03-20T19:38:46.280Z,1.90
2018-03-20T19:41:13.962Z,1.90
2018-03-20T19:43:41.533Z,2.00
2018-03-20T19:46:09.153Z,2.00
2018-03-20T19:48:37.559Z,2.00
2018-03-20T19:51:05.144Z,2.00
2018-03-20T19:53:32.734Z,2.00
2018-03-20T19:56:00.268Z,2.00
2018-03-20T19:58:27.829Z,2.00
2018-03-20T20:00:55.406Z,2.00
2018-03-20T20:03:23.017Z,2.00
2018-03-20T20:05:50.616Z,2.00
2018-03-20T20:08:18.193Z,1.90
2018-03-20T20:10:47.158Z,2.00
2018-03-20T20:13:14.792Z,1.90
2018-03-20T20:15:42.357Z,2.00
2018-03-20T20:18:09.930Z,1.90
2018-03-20T20:20:38.409Z,1.90
2018-03-20T20:23:06.072Z,2.00
2018-03-20T20:25:33.692Z,1.90
2018-03-20T20:28:01.510Z,2.00
2018-03-20T20:30:29.247Z,2.00
2018-03-20T20:32:56.841Z,2.00
2018-03-20T20:35:25.150Z,2.00
2018-03-20T20:37:52.745Z,2.00
2018-03-20T20:40:20.349Z,2.00
2018-03-20T20:42:47.932Z,2.00
2018-03-20T20:45:15.547Z,2.00
2018-03-20T20:47:43.831Z,2.00
2018-03-20T20:50:11.382Z,2.00
2018-03-20T20:52:38.941Z,2.00
2018-03-20T20:55:06.531Z,2.00
2018-03-20T20:57:34.901Z,1.90
2018-03-20T21:00:02.453Z,1.90
2018-03-20T21:02:29.992Z,2.00
2018-03-20T21:04:57.670Z,2.00
2018-03-20T21:07:25.245Z,1.90
2018-03-20T21:09:53.061Z,1.90
2018-03-20T21:12:20.618Z,1.90
2018-03-20T21:14:48.186Z,1.90
2018-03-20T21:17:15.738Z,1.90
2018-03-20T21:19:43.301Z,1.80
2018-03-20T21:22:10.861Z,1.80
2018-03-20T21:24:38.439Z,1.80
2018-03-20T21:27:05.989Z,1.80
2018-03-20T21:29:33.772Z,1.70
2018-03-20T21:32:01.313Z,1.70
2018-03-20T21:34:28.881Z,1.70
2018-03-20T21:36:56.417Z,1.70
2018-03-20T21:39:23.978Z,1.70
2018-03-20T21:41:52.663Z,1.70
2018-03-20T21:44:20.385Z,1.70
2018-03-20T21:46:48.713Z,1.60
2018-03-20T21:49:16.273Z,1.60
2018-03-20T21:51:43.888Z,1.60
2018-03-20T21:54:11.450Z,1.60
2018-03-20T21:56:39.790Z,1.50
2018-03-20T21:59:07.378Z,1.50
2018-03-20T22:01:35.741Z,1.40
2018-03-20T22:04:03.274Z,1.40
2018-03-20T22:06:30.862Z,1.40
2018-03-20T22:08:58.398Z,1.40
2018-03-20T22:11:25.957Z,1.30
2018-03-20T22:13:53.789Z,1.30
2018-03-20T22:16:21.617Z,1.30
2018-03-20T22:18:49.137Z,1.20
2018-03-20T22:21:16.823Z,1.10
2018-03-20T22:23:44.361Z,1.10
2018-03-20T22:26:11.933Z,1.00
2018-03-20T22:28:39.714Z,1.00
2018-03-20T22:31:07.387Z,1.00
2018-03-20T22:33:35.051Z,0.90
2018-03-20T22:36:03.377Z,0.80
2018-03-20T22:38:30.916Z,0.80
2018-03-20T22:40:58.737Z,0.80
2018-03-20T22:43:26.335Z,0.80
2018-03-20T22:45:53.964Z,0.70
2018-03-20T22:48:21.628Z,0.70
2018-03-20T22:50:49.217Z,0.70
2018-03-20T22:53:16.786Z,0.60
2018-03-20T22:55:44.367Z,0.60
2018-03-20T22:58:11.917Z,0.60
2018-03-20T23:00:39.593Z,0.60
2018-03-20T23:03:07.120Z,0.60
2018-03-20T23:05:34.677Z,0.50
2018-03-20T23:08:02.216Z,0.50
2018-03-20T23:10:29.936Z,0.50
2018-03-20T23:12:57.482Z,0.50
2018-03-20T23:15:25.047Z,0.50
2018-03-20T23:17:52.613Z,0.40
2018-03-20T23:20:20.169Z,0.40
2018-03-20T23:22:47.713Z,0.40
2018-03-20T23:25:15.277Z,0.40
2018-03-20T23:27:42.987Z,0.30
2018-03-20T23:30:10.677Z,0.30
2018-03-20T23:32:38.981Z,0.30
2018-03-20T23:35:06.548Z,0.30
2018-03-20T23:37:34.138Z,0.30
2018-03-20T23:40:01.708Z,0.20
2018-03-20T23:42:29.311Z,0.20
2018-03-20T23:44:56.873Z,0.10
2018-03-20T23:47:24.423Z,0.10
2018-03-20T23:49:51.979Z,0.10
2018-03-20T23:52:19.547Z,0.10
2018-03-20T23:54:47.185Z,0.00
2018-03-20T23:57:14.747Z,0.00
2018-03-20T23:59:43.073Z,0.00
